Time;durP1;ratioP1;P1;durP2;ratioP2;P2;SDS_P1;SDS_P2;PMS_P1;PMS_P2;Temp;Humidity;BMP_temperature;BMP_pressure;BME280_temperature;BME280_humidity;BME280_pressure;Samples;Min_cycle;Max_cycle;Signal;HPM_P1;HPM_P2
2023/04/20 00:00:37;;;;;;;2.70;1.48;;;;;;;20.06;47.56;98821.00;4955833;28;20436;-70
2023/04/20 00:03:03;;;;;;;2.67;1.48;;;;;;;20.05;47.61;98819.28;4973201;28;20077;-71
2023/04/20 00:05:30;;;;;;;2.70;1.42;;;;;;;20.03;47.59;98810.59;4972997;28;20035;-69
2023/04/20 00:07:56;;;;;;;2.90;1.63;;;;;;;20.02;47.98;98808.03;4972888;28;20123;-70
2023/04/20 00:10:21;;;;;;;2.30;1.40;;;;;;;20.00;47.74;98808.13;4972839;28;20111;-70
2023/04/20 00:12:47;;;;;;;2.05;1.15;;;;;;;20.00;47.90;98805.50;4973097;28;20058;-70
2023/04/20 00:15:12;;;;;;;2.92;1.70;;;;;;;20.01;47.87;98801.91;4973088;28;20038;-70
2023/04/20 00:17:38;;;;;;;3.67;1.73;;;;;;;20.03;47.56;98801.78;4972909;28;20035;-70
2023/04/20 00:20:05;;;;;;;2.35;1.55;;;;;;;19.99;47.94;98803.81;4972974;28;20035;-69
2023/04/20 00:22:30;;;;;;;3.08;1.80;;;;;;;19.97;47.94;98797.78;4972998;28;20516;-70
2023/04/20 00:24:55;;;;;;;2.38;1.27;;;;;;;19.97;47.80;98790.69;4972772;28;20034;-70
2023/04/20 00:27:21;;;;;;;1.85;1.40;;;;;;;19.97;47.68;98789.84;4972955;28;20078;-70
2023/04/20 00:29:46;;;;;;;2.47;1.50;;;;;;;19.94;48.04;98779.41;4973012;28;20045;-69
2023/04/20 00:32:12;;;;;;;2.53;1.50;;;;;;;19.94;47.88;98780.25;4971639;28;20023;-69
2023/04/20 00:34:37;;;;;;;2.78;1.60;;;;;;;19.94;47.70;98790.84;4972769;28;20033;-69
2023/04/20 00:37:02;;;;;;;2.35;1.33;;;;;;;19.91;48.09;98775.16;4972954;28;20158;-71
2023/04/20 00:39:28;;;;;;;2.60;1.70;;;;;;;19.90;48.11;98773.47;4973722;28;20038;-69
2023/04/20 00:41:53;;;;;;;2.38;1.40;;;;;;;19.89;48.01;98771.78;4992322;28;20018;-69
2023/04/20 00:44:19;;;;;;;2.25;1.60;;;;;;;19.90;47.99;98772.63;4977859;28;20385;-69
2023/04/20 00:46:45;;;;;;;2.90;1.50;;;;;;;19.88;47.84;98775.38;4981013;28;20052;-70
2023/04/20 00:49:10;;;;;;;3.08;1.38;;;;;;;19.88;48.06;98766.56;4992069;28;20481;-69
2023/04/20 00:51:36;;;;;;;2.80;1.67;;;;;;;19.86;48.01;98766.69;4992227;28;20500;-70
2023/04/20 00:54:02;;;;;;;3.38;1.60;;;;;;;19.85;47.93;98764.97;4991716;28;20019;-70
2023/04/20 00:56:27;;;;;;;2.22;1.45;;;;;;;19.84;47.89;98758.00;4992133;28;20365;-70
2023/04/20 00:58:53;;;;;;;2.25;1.45;;;;;;;19.82;47.88;98758.09;4992116;28;20065;-70
2023/04/20 01:01:19;;;;;;;2.92;1.63;;;;;;;19.82;48.04;98752.78;4992023;28;20018;-69
2023/04/20 01:03:45;;;;;;;2.05;1.30;;;;;;;19.82;47.90;98751.97;4974548;28;20026;-70
2023/04/20 01:06:13;;;;;;;2.45;1.40;;;;;;;19.80;48.09;98741.47;4992112;28;20061;-70
2023/04/20 01:08:49;;;;;;;2.67;1.42;;;;;;;19.79;48.16;98739.78;4991333;28;20034;-70
2023/04/20 01:11:14;;;;;;;1.63;1.27;;;;;;;19.78;48.06;98735.44;4992142;28;20030;-70
2023/04/20 01:13:40;;;;;;;2.08;1.33;;;;;;;19.77;48.01;98736.41;4992324;28;20045;-70
2023/04/20 01:16:06;;;;;;;2.78;1.33;;;;;;;19.76;47.96;98732.03;4995316;28;20034;-70
2023/04/20 01:18:47;;;;;;;3.30;1.55;;;;;;;19.75;48.13;98725.06;4995476;28;20477;-69
2023/04/20 01:21:14;;;;;;;2.95;1.50;;;;;;;19.77;47.84;98730.25;4995089;28;20492;-69
2023/04/20 01:23:39;;;;;;;2.67;1.77;;;;;;;19.74;48.27;98731.31;4988536;28;20078;-69
2023/04/20 01:26:10;;;;;;;2.50;1.48;;;;;;;19.74;47.95;98723.34;4975814;28;20034;-70
2023/04/20 01:28:36;;;;;;;2.58;1.50;;;;;;;19.71;48.09;98731.53;4958338;28;20042;-69
2023/04/20 01:31:03;;;;;;;3.05;1.50;;;;;;;19.72;48.07;98727.91;4975803;28;20469;-69
2023/04/20 01:33:29;;;;;;;3.08;1.42;;;;;;;19.69;48.08;98725.47;4975736;28;20500;-70
2023/04/20 01:35:55;;;;;;;2.08;1.20;;;;;;;19.69;48.25;98728.09;4975075;28;20039;-68
2023/04/20 01:38:21;;;;;;;2.33;1.38;;;;;;;19.66;48.17;98723.03;4975531;28;20082;-69
2023/04/20 01:40:47;;;;;;;2.75;1.25;;;;;;;19.66;48.33;98723.03;4975394;28;20046;-70
2023/04/20 01:43:13;;;;;;;2.28;1.50;;;;;;;19.64;48.29;98720.50;4975848;28;20027;-69
2023/04/20 01:45:39;;;;;;;2.78;1.30;;;;;;;19.64;48.08;98719.63;4958177;28;20439;-70
2023/04/20 01:48:04;;;;;;;2.63;1.40;;;;;;;19.62;48.15;98710.97;4975320;28;20062;-69
2023/04/20 01:50:30;;;;;;;2.17;1.27;;;;;;;19.62;47.94;98711.81;4975212;28;20034;-69
2023/04/20 01:52:55;;;;;;;3.45;1.40;;;;;;;19.61;48.17;98714.56;4975534;28;20030;-70
2023/04/20 01:55:20;;;;;;;2.60;1.45;;;;;;;19.61;47.94;98709.25;4975354;28;20378;-70
2023/04/20 01:57:46;;;;;;;2.85;1.50;;;;;;;19.61;48.22;98714.56;4958026;28;20034;-67
2023/04/20 02:00:12;;;;;;;2.53;1.48;;;;;;;19.58;48.10;98711.16;4975218;28;20118;-70
2023/04/20 02:02:38;;;;;;;3.22;1.65;;;;;;;19.57;48.07;98714.75;4975168;28;20031;-71
2023/04/20 02:05:03;;;;;;;1.50;1.30;;;;;;;19.56;48.28;98707.75;4975084;28;20042;-70
2023/04/20 02:07:29;;;;;;;3.25;1.40;;;;;;;19.56;48.00;98707.75;4975164;28;20034;-69
2023/04/20 02:09:55;;;;;;;3.33;1.50;;;;;;;19.55;47.80;98706.06;4974923;28;20085;-69
2023/04/20 02:12:20;;;;;;;2.70;1.48;;;;;;;19.51;48.13;98691.34;4973759;28;20027;-71
2023/04/20 02:14:45;;;;;;;3.10;1.77;;;;;;;19.52;48.16;98700.16;4975093;28;20033;-71
2023/04/20 02:17:11;;;;;;;2.42;1.50;;;;;;;19.51;48.14;98694.00;4974829;28;20089;-72
2023/04/20 02:19:36;;;;;;;2.45;1.50;;;;;;;19.51;48.13;98691.34;4974729;28;20117;-69
2023/04/20 02:22:02;;;;;;;2.17;1.40;;;;;;;19.49;48.32;98695.91;4974831;28;20030;-69
2023/04/20 02:24:27;;;;;;;2.42;1.17;;;;;;;19.50;48.15;98694.09;4974793;28;20504;-67
2023/04/20 02:26:53;;;;;;;2.25;1.30;;;;;;;19.47;48.01;98691.66;4973863;28;20023;-70
2023/04/20 02:29:18;;;;;;;2.80;1.58;;;;;;;19.46;48.07;98693.44;4974738;28;20027;-69
2023/04/20 02:31:44;;;;;;;2.45;1.60;;;;;;;19.45;48.19;98689.13;4974826;28;20026;-70
2023/04/20 02:34:09;;;;;;;3.10;1.58;;;;;;;19.43;47.94;98697.16;4974272;28;20027;-68
2023/04/20 02:36:35;;;;;;;2.40;1.50;;;;;;;19.43;48.02;98691.84;4974539;28;20503;-70
2023/04/20 02:39:01;;;;;;;2.78;1.50;;;;;;;19.43;48.01;98685.72;4974754;28;20030;-69
2023/04/20 02:41:26;;;;;;;2.95;1.67;;;;;;;19.40;48.36;98696.50;4974398;28;20552;-70
2023/04/20 02:43:52;;;;;;;2.88;1.50;;;;;;;19.41;48.02;98687.63;4974365;28;20323;-71
2023/04/20 02:46:17;;;;;;;2.38;1.40;;;;;;;19.39;48.09;98678.94;4974528;28;20030;-70
2023/04/20 02:48:43;;;;;;;3.50;1.50;;;;;;;19.38;48.24;98682.53;4973945;28;20114;-70
2023/04/20 02:51:08;;;;;;;2.72;1.80;;;;;;;19.38;48.43;98687.84;4974241;28;20093;-70
2023/04/20 02:53:34;;;;;;;2.17;1.40;;;;;;;19.38;48.15;98677.25;4974370;28;20026;-69
2023/04/20 02:55:59;;;;;;;2.67;1.60;;;;;;;19.39;48.07;98681.59;4974148;28;20023;-70
2023/04/20 02:58:25;;;;;;;3.28;1.50;;;;;;;19.38;48.19;98674.59;4974184;28;20482;-70
2023/04/20 03:00:50;;;;;;;3.50;1.85;;;;;;;19.37;48.26;98665.81;4974373;28;20027;-69
2023/04/20 03:03:17;;;;;;;3.50;1.85;;;;;;;19.34;48.41;98665.16;4973679;28;20404;-70
2023/04/20 03:05:42;;;;;;;3.33;1.50;;;;;;;19.35;48.16;98662.44;4974178;28;20038;-69
2023/04/20 03:08:08;;;;;;;2.35;1.40;;;;;;;19.33;48.22;98661.69;4973798;28;20030;-69
2023/04/20 03:10:33;;;;;;;3.35;1.60;;;;;;;19.33;48.22;98659.06;4967441;28;20106;-68
2023/04/20 03:12:59;;;;;;;2.75;1.70;;;;;;;19.32;48.15;98663.47;4974136;28;20018;-70
2023/04/20 03:15:24;;;;;;;2.10;1.30;;;;;;;19.33;48.26;98659.06;4973953;28;20034;-70
2023/04/20 03:17:50;;;;;;;3.42;1.80;;;;;;;19.31;47.92;98660.94;4973544;28;20382;-70
2023/04/20 03:20:15;;;;;;;2.38;1.65;;;;;;;19.30;48.28;98660.09;4973823;28;20082;-71
2023/04/20 03:22:41;;;;;;;2.72;1.60;;;;;;;19.27;48.18;98655.00;4973708;28;20480;-69
2023/04/20 03:25:07;;;;;;;2.75;1.38;;;;;;;19.26;48.19;98653.31;4973623;28;20109;-69
2023/04/20 03:27:33;;;;;;;2.30;1.63;;;;;;;19.27;48.11;98654.16;4973767;28;20034;-69
2023/04/20 03:29:59;;;;;;;2.63;1.60;;;;;;;19.24;48.34;98652.56;4973293;28;20397;-70
2023/04/20 03:32:25;;;;;;;2.80;1.70;;;;;;;19.24;48.35;98660.50;4973410;28;20081;-70
2023/04/20 03:34:50;;;;;;;3.45;1.73;;;;;;;19.21;47.99;98659.88;4973718;28;20030;-71
2023/04/20 03:37:16;;;;;;;2.67;1.48;;;;;;;19.22;48.18;98665.03;4973045;28;20489;-70
2023/04/20 03:39:41;;;;;;;3.08;1.45;;;;;;;19.21;48.02;98666.00;4973444;28;20054;-70
2023/04/20 03:42:07;;;;;;;2.30;1.40;;;;;;;19.20;48.20;98661.66;4973543;28;20423;-69
2023/04/20 03:44:32;;;;;;;2.70;1.70;;;;;;;19.18;48.27;98667.03;4973364;28;20030;-69
2023/04/20 03:46:58;;;;;;;2.72;1.52;;;;;;;19.18;48.18;98666.22;4973189;28;20374;-70
2023/04/20 03:49:24;;;;;;;2.78;1.63;;;;;;;19.17;48.08;98665.34;4973305;28;20058;-70
2023/04/20 03:51:50;;;;;;;2.72;1.50;;;;;;;19.17;48.07;98656.56;4973295;28;20073;-69
2023/04/20 03:54:16;;;;;;;2.63;1.75;;;;;;;19.16;48.12;98660.16;4972108;28;20038;-70
2023/04/20 03:56:43;;;;;;;2.90;1.70;;;;;;;19.15;48.20;98663.75;4973243;28;20035;-70
2023/04/20 03:59:08;;;;;;;3.65;1.50;;;;;;;19.13;48.10;98668.31;4973166;28;20027;-70
2023/04/20 04:01:36;;;;;;;2.22;1.40;;;;;;;19.13;48.01;98660.38;4973044;28;20115;-70
2023/04/20 04:04:01;;;;;;;1.85;1.35;;;;;;;19.11;48.18;98670.19;4973260;28;20027;-69
2023/04/20 04:06:27;;;;;;;2.78;1.55;;;;;;;19.13;47.98;98655.09;4973193;28;20023;-70
2023/04/20 04:08:52;;;;;;;2.72;1.38;;;;;;;19.12;48.18;98658.69;4972917;28;20031;-69
2023/04/20 04:11:17;;;;;;;2.95;1.50;;;;;;;19.11;47.99;98664.91;4973141;28;20026;-69
2023/04/20 04:13:43;;;;;;;2.40;1.40;;;;;;;19.09;48.02;98666.81;4973120;28;20033;-69
2023/04/20 04:16:08;;;;;;;2.80;1.52;;;;;;;19.08;48.23;98662.47;4972639;28;20027;-71
2023/04/20 04:18:34;;;;;;;2.33;1.50;;;;;;;19.08;48.29;98670.41;4972903;28;20039;-69
2023/04/20 04:20:59;;;;;;;2.63;1.58;;;;;;;19.05;48.39;98668.81;4973191;28;20027;-70
2023/04/20 04:23:25;;;;;;;3.10;1.52;;;;;;;19.03;48.33;98663.59;4972998;28;20549;-69
2023/04/20 04:25:50;;;;;;;2.63;1.45;;;;;;;19.03;48.03;98658.31;4972933;28;20540;-70
2023/04/20 04:28:16;;;;;;;2.97;1.70;;;;;;;19.04;48.00;98659.19;4973008;28;20525;-70
2023/04/20 04:30:41;;;;;;;3.28;1.70;;;;;;;19.05;48.22;98655.59;4972503;28;20050;-70
2023/04/20 04:33:09;;;;;;;2.97;1.67;;;;;;;19.04;48.24;98667.94;4972799;28;20113;-70
2023/04/20 04:35:34;;;;;;;2.28;1.27;;;;;;;19.03;48.10;98660.13;4972946;28;20035;-70
2023/04/20 04:38:01;;;;;;;2.95;1.63;;;;;;;19.00;48.30;98658.50;4972950;28;20049;-70
2023/04/20 04:40:26;;;;;;;2.80;1.58;;;;;;;19.01;48.24;98664.63;4972580;28;20059;-68
2023/04/20 04:42:51;;;;;;;3.20;1.80;;;;;;;19.00;48.12;98669.09;4972758;28;20428;-69
2023/04/20 04:45:17;;;;;;;2.13;1.25;;;;;;;19.02;48.28;98666.31;4972420;28;20374;-70
2023/04/20 04:47:43;;;;;;;1.70;1.38;;;;;;;19.00;48.22;98663.78;4972607;28;20057;-70
2023/04/20 04:50:09;;;;;;;2.05;1.33;;;;;;;19.02;48.13;98667.16;4975416;28;20474;-69
2023/04/20 04:52:35;;;;;;;3.65;1.70;;;;;;;19.01;48.02;98668.13;4976533;28;20027;-70
2023/04/20 04:55:01;;;;;;;2.70;1.50;;;;;;;18.99;48.28;98667.34;4976698;28;20031;-71
2023/04/20 04:57:27;;;;;;;2.42;1.70;;;;;;;18.98;48.31;98670.97;4976375;28;20023;-69
2023/04/20 04:59:52;;;;;;;2.53;1.60;;;;;;;18.96;48.05;98667.56;4976129;28;20169;-69
2023/04/20 05:02:18;;;;;;;2.15;1.30;;;;;;;18.96;48.24;98667.56;4976444;28;20034;-70
2023/04/20 05:04:44;;;;;;;2.80;1.67;;;;;;;18.96;48.44;98667.56;4976174;28;20023;-70
2023/04/20 05:07:09;;;;;;;2.92;1.65;;;;;;;18.91;48.25;98664.38;4976320;28;20058;-70
2023/04/20 05:09:36;;;;;;;2.70;1.50;;;;;;;18.90;48.15;98662.69;4976080;28;20118;-70
2023/04/20 05:12:02;;;;;;;2.47;1.58;;;;;;;18.91;48.49;98664.38;4975879;28;20034;-70
2023/04/20 05:14:30;;;;;;;2.67;1.63;;;;;;;18.89;48.47;98667.13;4975818;28;20106;-70
2023/04/20 05:16:55;;;;;;;2.90;1.80;;;;;;;18.87;48.34;98673.44;4975642;28;20019;-68
2023/04/20 05:19:21;;;;;;;2.83;1.83;;;;;;;18.88;48.23;98677.78;4976001;28;20030;-70
2023/04/20 05:21:46;;;;;;;2.30;1.63;;;;;;;18.88;48.25;98676.00;4975953;28;20070;-70
2023/04/20 05:24:11;;;;;;;1.95;1.27;;;;;;;18.88;48.49;98680.44;4976046;28;20465;-69
2023/04/20 05:26:37;;;;;;;2.22;1.38;;;;;;;18.88;48.53;98680.44;4975689;28;20023;-70
2023/04/20 05:29:02;;;;;;;3.22;1.40;;;;;;;18.88;48.37;98691.84;4975557;28;20563;-69
2023/04/20 05:31:28;;;;;;;2.72;1.50;;;;;;;18.87;48.46;98678.72;4975817;28;20023;-70
2023/04/20 05:33:53;;;;;;;2.55;1.65;;;;;;;18.86;48.27;98682.34;4975829;28;20189;-69
2023/04/20 05:36:19;;;;;;;3.58;1.73;;;;;;;18.86;48.22;98682.34;4975768;28;20027;-70
2023/04/20 05:38:45;;;;;;;2.25;1.55;;;;;;;18.86;48.44;98690.25;4975745;28;20027;-70
2023/04/20 05:41:10;;;;;;;2.90;1.70;;;;;;;18.86;48.59;98687.63;4990561;28;20185;-70
2023/04/20 05:43:35;;;;;;;2.33;1.42;;;;;;;18.84;48.38;98684.22;4968799;28;20039;-71
2023/04/20 05:46:01;;;;;;;2.58;1.65;;;;;;;18.84;48.31;98684.22;4975468;28;20108;-71
2023/04/20 05:48:26;;;;;;;1.80;1.17;;;;;;;18.86;48.21;98682.34;4975467;28;20035;-71
2023/04/20 05:50:53;;;;;;;3.75;1.67;;;;;;;18.88;48.61;98694.50;4958101;28;20027;-71
2023/04/20 05:53:19;;;;;;;2.80;1.63;;;;;;;18.85;48.23;98688.56;4990458;28;20105;-70
2023/04/20 05:55:44;;;;;;;2.35;1.40;;;;;;;18.87;48.22;98689.31;4977435;28;20054;-69
2023/04/20 05:58:10;;;;;;;3.10;1.88;;;;;;;18.85;48.36;98686.78;4994345;28;20106;-70
2023/04/20 06:00:36;;;;;;;2.55;1.65;;;;;;;18.86;48.22;98687.63;4994560;28;20018;-70
2023/04/20 06:03:02;;;;;;;3.30;1.75;;;;;;;18.86;48.21;98682.34;4994996;28;20026;-70
2023/04/20 06:05:27;;;;;;;3.15;1.80;;;;;;;18.86;48.23;98687.63;4994503;28;20489;-70
2023/04/20 06:07:53;;;;;;;3.38;1.80;;;;;;;18.87;48.30;98686.66;4994435;28;20069;-70
2023/04/20 06:10:18;;;;;;;2.35;1.50;;;;;;;18.88;48.10;98685.72;4977020;28;20126;-70
2023/04/20 06:12:44;;;;;;;3.15;1.70;;;;;;;18.88;48.44;98691.00;4994090;28;20022;-68
2023/04/20 06:15:10;;;;;;;2.65;1.60;;;;;;;18.88;48.34;98688.34;4994355;28;20030;-70
2023/04/20 06:17:39;;;;;;;2.42;1.50;;;;;;;18.92;48.12;98681.94;4994369;28;20085;-70
2023/04/20 06:20:09;;;;;;;2.85;1.73;;;;;;;18.91;48.39;98690.81;4994585;28;20038;-70
2023/04/20 06:22:35;;;;;;;3.05;1.60;;;;;;;18.96;48.01;98699.31;4990307;28;20512;-71
2023/04/20 06:25:00;;;;;;;3.20;1.70;;;;;;;18.96;48.23;98701.09;4975004;28;20026;-70
2023/04/20 06:27:26;;;;;;;2.97;1.42;;;;;;;18.98;48.34;98692.09;4974375;28;20029;-69
2023/04/20 06:29:51;;;;;;;3.60;1.67;;;;;;;18.96;48.31;98694.00;4974719;28;20030;-69
2023/04/20 06:32:17;;;;;;;2.78;1.67;;;;;;;18.97;48.08;98686.91;4957271;28;20077;-71
2023/04/20 06:34:42;;;;;;;2.28;1.52;;;;;;;18.96;48.32;98682.56;4974545;28;20459;-71
2023/04/20 06:37:08;;;;;;;2.50;1.60;;;;;;;18.96;48.23;98688.72;4974552;28;20109;-68
2023/04/20 06:39:34;;;;;;;3.67;1.88;;;;;;;18.97;48.13;98679.84;4974308;28;20035;-71
2023/04/20 06:42:01;;;;;;;4.18;2.35;;;;;;;18.94;48.37;98679.19;4974315;28;20405;-71
2023/04/20 06:44:26;;;;;;;3.28;1.85;;;;;;;18.96;48.36;98683.44;4974359;28;20031;-70
2023/04/20 06:46:51;;;;;;;2.65;1.55;;;;;;;18.97;48.08;98681.63;4974408;28;20085;-71
2023/04/20 06:49:17;;;;;;;3.80;1.75;;;;;;;18.97;48.41;98689.56;4956929;28;20413;-70
2023/04/20 06:51:42;;;;;;;2.70;1.73;;;;;;;18.96;48.15;98693.16;4974344;28;20030;-70
2023/04/20 06:54:09;;;;;;;2.95;1.80;;;;;;;18.96;48.29;98686.09;4974437;28;20038;-70
2023/04/20 06:56:34;;;;;;;3.38;1.85;;;;;;;18.97;48.14;98690.41;4973971;28;20057;-71
2023/04/20 06:58:59;;;;;;;2.45;1.63;;;;;;;19.01;48.25;98683.13;4974162;28;20051;-71
2023/04/20 07:01:25;;;;;;;3.47;1.55;;;;;;;18.96;48.08;98678.16;4974131;28;20555;-71
2023/04/20 07:03:51;;;;;;;2.58;1.50;;;;;;;18.99;48.34;98664.72;4974110;28;20030;-70
2023/04/20 07:06:16;;;;;;;2.90;1.60;;;;;;;18.97;48.14;98674.56;4974179;28;20031;-71
2023/04/20 07:08:42;;;;;;;3.65;1.98;;;;;;;18.96;48.07;98672.00;4974022;28;20396;-71
2023/04/20 07:11:07;;;;;;;3.95;1.75;;;;;;;18.98;48.29;98670.97;4973393;28;20154;-71
2023/04/20 07:13:33;;;;;;;3.03;1.90;;;;;;;19.02;48.04;98667.16;4973491;28;20109;-70
2023/04/20 07:15:58;;;;;;;4.07;2.00;;;;;;;18.97;48.17;98674.56;4973729;28;20023;-72
2023/04/20 07:18:24;;;;;;;2.90;1.70;;;;;;;18.97;48.44;98663.97;4974087;28;20019;-70
2023/04/20 07:20:49;;;;;;;2.88;1.90;;;;;;;18.99;48.32;98667.34;4974039;28;20023;-71
2023/04/20 07:23:15;;;;;;;3.35;1.92;;;;;;;18.97;48.45;98657.84;4973805;28;20477;-71
2023/04/20 07:25:40;;;;;;;2.95;1.65;;;;;;;18.98;48.40;98652.44;4973506;28;20035;-69
2023/04/20 07:28:06;;;;;;;3.25;1.55;;;;;;;19.02;47.99;98653.94;4973694;28;20039;-71
2023/04/20 07:30:31;;;;;;;3.15;1.70;;;;;;;19.07;48.03;98647.56;4973664;28;20113;-70
2023/04/20 07:32:56;;;;;;;3.00;1.90;;;;;;;19.08;48.36;98649.25;4973607;28;20074;-72
2023/04/20 07:35:22;;;;;;;2.50;1.70;;;;;;;19.09;48.08;98656.22;4973427;28;20023;-71
2023/04/20 07:37:47;;;;;;;3.17;1.80;;;;;;;19.13;48.00;98652.44;4973576;28;20109;-71
2023/04/20 07:40:13;;;;;;;3.65;1.95;;;;;;;19.14;48.10;98657.59;4972998;28;20046;-71
2023/04/20 07:42:38;;;;;;;5.60;2.33;;;;;;;19.17;47.97;98654.78;4973425;28;20355;-69
2023/04/20 07:45:05;;;;;;;3.78;1.90;;;;;;;19.19;48.01;98658.16;4973473;28;20041;-71
2023/04/20 07:47:32;;;;;;;3.25;2.08;;;;;;;19.20;47.94;98648.44;4973333;28;20034;-71
2023/04/20 07:49:58;;;;;;;3.60;1.90;;;;;;;19.23;47.80;98650.84;4973352;28;20027;-72
2023/04/20 07:52:26;;;;;;;3.15;1.95;;;;;;;19.24;47.91;98649.94;4973199;28;20041;-69
2023/04/20 07:54:57;;;;;;;3.30;2.10;;;;;;;19.24;48.10;98655.22;4972983;28;20397;-70
2023/04/20 07:57:23;;;;;;;2.75;1.85;;;;;;;19.24;48.08;98649.06;4973221;28;20128;-71
2023/04/20 07:59:48;;;;;;;2.75;1.70;;;;;;;19.25;48.18;98651.63;4973219;28;20031;-64
2023/04/20 08:02:14;;;;;;;2.97;1.58;;;;;;;19.27;48.03;98654.16;4975185;28;20109;-64
2023/04/20 08:04:40;;;;;;;2.63;1.63;;;;;;;19.30;47.92;98657.47;4979651;28;20401;-64
2023/04/20 08:07:06;;;;;;;2.97;1.90;;;;;;;19.32;47.68;98652.03;4971841;28;20043;-64
2023/04/20 08:09:31;;;;;;;3.17;1.88;;;;;;;19.30;48.01;98649.53;4972383;28;20085;-64
2023/04/20 08:11:56;;;;;;;4.00;2.17;;;;;;;19.32;47.73;98644.97;4971725;28;20065;-64
2023/04/20 08:14:22;;;;;;;3.65;1.80;;;;;;;19.34;48.01;98649.31;4973156;28;20026;-64
2023/04/20 08:16:47;;;;;;;3.75;2.10;;;;;;;19.35;47.91;98651.00;4972062;28;20035;-63
2023/04/20 08:19:13;;;;;;;3.28;1.88;;;;;;;19.36;47.73;98652.72;4972119;28;20086;-64
2023/04/20 08:21:40;;;;;;;3.28;2.10;;;;;;;19.36;47.75;98650.91;4970836;28;20105;-63
2023/04/20 08:24:07;;;;;;;3.25;1.90;;;;;;;19.38;47.84;98650.78;4969788;28;20037;-64
2023/04/20 08:26:33;;;;;;;2.92;1.90;;;;;;;19.39;48.07;98653.34;4975065;28;20015;-64
2023/04/20 08:29:00;;;;;;;2.88;1.85;;;;;;;19.40;47.87;98652.41;4976667;28;20042;-64
2023/04/20 08:31:26;;;;;;;2.33;1.60;;;;;;;19.40;48.08;98648.88;4976888;28;20508;-65
2023/04/20 08:33:51;;;;;;;3.95;1.90;;;;;;;19.41;47.81;98645.28;4976946;28;20042;-64
2023/04/20 08:36:17;;;;;;;3.58;2.00;;;;;;;19.42;47.71;98649.66;4976569;28;20022;-64
2023/04/20 08:38:43;;;;;;;2.70;1.70;;;;;;;19.44;47.80;98656.53;4976697;28;20031;-64
2023/04/20 08:41:12;;;;;;;3.58;1.70;;;;;;;19.44;48.19;98653.03;4976202;28;20061;-63
2023/04/20 08:43:37;;;;;;;2.75;1.92;;;;;;;19.46;48.00;98648.47;4976680;28;20101;-64
2023/04/20 08:46:03;;;;;;;2.88;1.75;;;;;;;19.47;47.92;98647.53;4976385;28;20130;-64
2023/04/20 08:48:34;;;;;;;2.80;1.77;;;;;;;19.48;48.06;98651.88;4976688;28;20041;-64
2023/04/20 08:51:00;;;;;;;2.90;1.80;;;;;;;19.50;48.10;98646.47;4975872;28;20058;-64
2023/04/20 08:53:26;;;;;;;4.03;2.05;;;;;;;19.52;47.92;98644.56;4959085;28;20722;-64
2023/04/20 08:55:51;;;;;;;3.90;1.95;;;;;;;19.52;47.94;98642.75;4976671;28;20046;-65
2023/04/20 08:58:17;;;;;;;4.30;2.20;;;;;;;19.53;47.94;98640.97;4976030;28;20034;-64
2023/04/20 09:00:49;;;;;;;3.45;2.00;;;;;;;19.54;47.78;98650.59;4976445;28;20393;-64
2023/04/20 09:03:14;;;;;;;3.40;2.17;;;;;;;19.55;47.99;98642.56;4976118;28;20477;-64
2023/04/20 09:05:40;;;;;;;2.88;2.00;;;;;;;19.56;47.71;98648.69;4976118;28;20038;-64
2023/04/20 09:08:07;;;;;;;3.22;2.03;;;;;;;19.58;48.07;98644.16;4975217;28;20082;-64
2023/04/20 09:10:43;;;;;;;3.50;2.30;;;;;;;19.58;47.77;98637.06;4976275;28;20026;-64
2023/04/20 09:13:20;;;;;;;3.60;1.80;;;;;;;19.61;47.88;98640.47;4976288;28;20523;-64
2023/04/20 09:15:45;;;;;;;3.53;2.00;;;;;;;19.61;47.75;98630.69;4976315;28;20085;-63
2023/04/20 09:18:13;;;;;;;3.60;2.05;;;;;;;19.61;47.77;98640.47;4976234;28;20034;-64
2023/04/20 09:20:39;;;;;;;3.35;1.88;;;;;;;19.63;47.97;98638.53;4975955;28;20031;-63
2023/04/20 09:23:15;;;;;;;5.13;2.00;;;;;;;19.66;47.94;98638.34;4976078;28;20030;-64
2023/04/20 09:25:42;;;;;;;4.78;1.83;;;;;;;19.67;48.00;98630.28;4976127;28;20109;-63
2023/04/20 09:28:08;;;;;;;6.70;2.40;;;;;;;19.69;48.03;98638.13;4975729;28;20042;-63
2023/04/20 09:30:42;;;;;;;6.93;2.20;;;;;;;19.67;47.86;98640.03;4976134;28;20048;-64
2023/04/20 09:33:11;;;;;;;6.88;2.40;;;;;;;19.69;47.97;98638.97;4975884;28;20092;-64
2023/04/20 09:35:39;;;;;;;3.30;1.85;;;;;;;19.72;47.85;98637.94;4974978;28;20086;-63
2023/04/20 09:38:06;;;;;;;3.20;1.90;;;;;;;19.73;47.92;98636.97;4975115;28;20066;-63
2023/04/20 09:40:32;;;;;;;3.95;2.03;;;;;;;19.73;48.07;98635.16;4975537;28;20528;-63
2023/04/20 09:43:16;;;;;;;5.03;2.30;;;;;;;19.75;47.83;98635.06;4975627;28;20023;-63
2023/04/20 09:45:42;;;;;;;4.38;2.08;;;;;;;19.75;48.10;98637.69;4975700;28;20499;-63
2023/04/20 09:48:07;;;;;;;4.00;2.00;;;;;;;19.78;47.94;98629.56;4975441;28;20027;-63
2023/04/20 09:50:37;;;;;;;6.80;2.03;;;;;;;19.78;47.87;98626.91;4975201;28;20389;-63
2023/04/20 09:53:05;;;;;;;5.78;2.25;;;;;;;19.80;48.06;98630.28;4975442;28;20023;-63
2023/04/20 09:55:31;;;;;;;6.55;1.95;;;;;;;19.83;48.16;98621.28;4974969;28;20094;-63
2023/04/20 09:57:58;;;;;;;4.75;2.33;;;;;;;19.83;48.06;98619.50;4975232;28;20110;-63
2023/04/20 10:00:23;;;;;;;4.18;2.00;;;;;;;19.86;48.06;98613.16;4975379;28;20026;-63
2023/04/20 10:02:50;;;;;;;6.70;2.20;;;;;;;19.87;48.05;98625.44;4975245;28;20035;-63
2023/04/20 10:05:15;;;;;;;6.03;2.50;;;;;;;19.88;48.08;98611.22;4972176;28;20034;-62
2023/04/20 10:07:41;;;;;;;4.78;2.13;;;;;;;19.89;48.05;98617.38;4974908;28;20481;-63
2023/04/20 10:10:10;;;;;;;4.18;2.28;;;;;;;19.91;48.18;98610.16;4974739;28;20118;-63
2023/04/20 10:12:48;;;;;;;4.55;2.47;;;;;;;19.92;48.21;98601.28;4975090;28;20089;-63
2023/04/20 10:15:14;;;;;;;5.80;2.10;;;;;;;19.94;47.88;98599.34;4975055;28;20118;-63
2023/04/20 10:17:40;;;;;;;5.50;2.40;;;;;;;19.96;48.17;98594.84;4973992;28;20105;-63
2023/04/20 10:20:20;;;;;;;4.63;2.80;;;;;;;19.97;48.22;98596.53;4974573;28;20106;-66
2023/04/20 10:22:46;;;;;;;6.03;2.20;;;;;;;19.98;47.83;98595.56;4974782;28;20039;-63
2023/04/20 10:25:18;;;;;;;6.25;2.42;;;;;;;19.99;47.93;98586.66;4974549;28;20034;-63
2023/04/20 10:27:57;;;;;;;4.60;2.63;;;;;;;20.01;47.93;98583.91;4974203;28;20077;-65
2023/04/20 10:30:25;;;;;;;4.60;2.28;;;;;;;20.02;48.24;98585.59;4974791;28;20110;-65
2023/04/20 10:33:05;;;;;;;9.05;3.10;;;;;;;20.01;48.50;98584.78;4974344;28;20038;-64
2023/04/20 10:36:03;;;;;;;9.20;3.53;;;;;;;20.06;48.20;98582.66;4974537;28;20035;-65
2023/04/20 10:38:29;;;;;;;14.48;3.70;;;;;;;20.08;48.21;98579.88;4876764;29;20047;-64
2023/04/20 10:40:54;;;;;;;17.55;3.90;;;;;;;20.09;48.51;98577.13;4861384;29;20057;-64
2023/04/20 10:43:21;;;;;;;18.45;4.53;;;;;;;20.11;48.37;98574.38;4877264;29;20500;-65
2023/04/20 10:45:48;;;;;;;14.45;5.05;;;;;;;20.11;48.32;98575.19;4895483;29;20044;-65
2023/04/20 10:48:14;;;;;;;15.07;4.88;;;;;;;20.16;48.41;98571.38;4894095;29;20131;-68
2023/04/20 10:50:40;;;;;;;14.98;4.30;;;;;;;20.17;48.50;98573.06;4895687;29;20111;-68
2023/04/20 10:53:15;;;;;;;13.40;4.25;;;;;;;20.18;48.41;98569.47;4895888;29;20029;-68
2023/04/20 10:55:41;;;;;;;11.65;4.18;;;;;;;20.21;48.27;98578.06;4895879;29;20160;-68
2023/04/20 10:58:06;;;;;;;13.30;4.32;;;;;;;20.22;48.14;98560.34;4890653;29;20116;-67
2023/04/20 11:00:32;;;;;;;16.13;3.55;;;;;;;20.24;48.19;98555.81;4870344;29;20044;-67
2023/04/20 11:02:57;;;;;;;10.55;4.10;;;;;;;20.25;48.37;98554.84;4874210;29;20551;-65
2023/04/20 11:05:25;;;;;;;13.30;3.85;;;;;;;20.27;48.20;98552.91;4876007;29;20040;-69
2023/04/20 11:07:56;;;;;;;10.07;3.83;;;;;;;20.28;48.23;98549.31;4876406;29;20084;-68
2023/04/20 11:10:23;;;;;;;10.77;3.67;;;;;;;20.30;48.38;98547.41;4877008;29;20124;-68
2023/04/20 11:12:49;;;;;;;10.85;3.60;;;;;;;20.31;48.55;98554.41;4874535;29;20053;-68
2023/04/20 11:15:15;;;;;;;9.15;3.60;;;;;;;20.33;48.44;98549.81;4968222;28;20429;-67
2023/04/20 11:17:41;;;;;;;12.43;3.60;;;;;;;20.34;48.43;98553.31;4965647;28;20027;-68
2023/04/20 11:20:09;;;;;;;11.32;3.80;;;;;;;20.36;48.16;98552.25;4970478;28;20105;-68
2023/04/20 11:22:37;;;;;;;11.90;3.88;;;;;;;20.38;48.36;98546.81;4957134;28;20027;-67
2023/04/20 11:25:11;;;;;;;9.07;3.50;;;;;;;20.39;48.22;98541.41;4964822;28;20049;-68
2023/04/20 11:27:38;;;;;;;9.23;3.55;;;;;;;20.43;48.40;98541.22;4968673;28;20077;-68